Time;durP1;ratioP1;P1;durP2;ratioP2;P2;SDS_P1;SDS_P2;PMS_P1;PMS_P2;Temp;Humidity;BMP_temperature;BMP_pressure;BME280_temperature;BME280_humidity;BME280_pressure;Samples;Min_cycle;Max_cycle;Signal;HPM_P1;HPM_P2
2023/09/15 00:00:20;;;;;;;4.40;1.40;;;14.70;99.90;;;;;;5040362;28;20017;-78
2023/09/15 00:02:47;;;;;;;1.65;1.45;;;14.70;99.90;;;;;;5040029;28;20113;-78
2023/09/15 00:05:14;;;;;;;2.22;1.33;;;14.70;99.90;;;;;;5039939;28;20018;-78
2023/09/15 00:07:39;;;;;;;6.25;1.77;;;14.70;99.90;;;;;;5039992;28;20025;-78
2023/09/15 00:10:07;;;;;;;9.85;2.08;;;14.70;99.90;;;;;;5042089;28;20025;-78
2023/09/15 00:12:34;;;;;;;1.67;1.58;;;14.80;99.90;;;;;;5044668;28;20254;-78
2023/09/15 00:15:07;;;;;;;1.88;1.75;;;14.70;99.90;;;;;;5044232;28;20037;-78
2023/09/15 00:17:34;;;;;;;2.80;1.75;;;14.70;99.90;;;;;;5045381;28;20213;-78
2023/09/15 00:20:00;;;;;;;3.00;1.52;;;14.70;99.90;;;;;;5043903;28;20329;-79
2023/09/15 00:22:26;;;;;;;3.45;1.88;;;14.70;99.90;;;;;;5043780;28;20033;-78
2023/09/15 00:24:51;;;;;;;3.45;2.08;;;14.60;99.90;;;;;;5043857;28;20071;-78
2023/09/15 00:27:17;;;;;;;2.45;1.48;;;14.60;99.90;;;;;;5043834;28;20048;-79
2023/09/15 00:29:43;;;;;;;1.75;1.55;;;14.50;99.90;;;;;;5043922;28;20055;-78
2023/09/15 00:32:09;;;;;;;2.50;1.30;;;14.40;99.90;;;;;;5045373;28;20021;-79
2023/09/15 00:34:34;;;;;;;2.08;1.30;;;14.30;99.90;;;;;;5043786;28;20044;-78
2023/09/15 00:37:00;;;;;;;2.00;1.83;;;14.30;99.90;;;;;;5043748;28;20022;-78
2023/09/15 00:39:25;;;;;;;5.00;1.83;;;14.20;99.90;;;;;;5044801;28;20314;-79
2023/09/15 00:41:51;;;;;;;2.35;1.80;;;14.10;99.90;;;;;;5043470;28;20416;-80
2023/09/15 00:44:17;;;;;;;1.30;1.20;;;14.10;99.90;;;;;;5044089;28;20116;-78
2023/09/15 00:46:42;;;;;;;3.55;2.35;;;14.10;99.90;;;;;;5043428;28;20301;-79
2023/09/15 00:49:08;;;;;;;1.75;1.20;;;14.10;99.90;;;;;;5043378;28;20017;-80
2023/09/15 00:51:35;;;;;;;2.90;1.60;;;14.00;99.90;;;;;;5044418;28;20028;-78
2023/09/15 00:54:00;;;;;;;1.92;1.10;;;13.90;99.90;;;;;;5044837;28;20018;-78
2023/09/15 00:56:26;;;;;;;2.15;1.42;;;13.90;99.90;;;;;;5043710;28;20013;-78
2023/09/15 00:58:53;;;;;;;5.80;1.65;;;13.80;99.90;;;;;;5043477;28;20029;-78
2023/09/15 01:01:20;;;;;;;1.65;1.33;;;13.80;99.90;;;;;;5045155;28;20033;-78
2023/09/15 01:03:46;;;;;;;2.08;1.30;;;13.70;99.90;;;;;;5043991;28;20029;-78
2023/09/15 01:06:12;;;;;;;3.00;1.63;;;13.60;99.90;;;;;;5043378;28;20067;-78
2023/09/15 01:08:38;;;;;;;3.92;1.27;;;13.60;99.90;;;;;;5044018;28;20093;-79
2023/09/15 01:11:07;;;;;;;2.05;1.42;;;13.50;99.90;;;;;;5044174;28;20048;-78
2023/09/15 01:13:34;;;;;;;4.78;1.60;;;13.40;99.90;;;;;;5044165;28;20408;-78
2023/09/15 01:16:16;;;;;;;4.75;1.55;;;13.40;99.90;;;;;;5043847;28;20091;-79
2023/09/15 01:18:52;;;;;;;2.72;1.55;;;13.40;99.90;;;;;;5044890;28;20305;-79
2023/09/15 01:21:27;;;;;;;1.80;1.40;;;13.30;99.90;;;;;;5044354;28;20143;-78
2023/09/15 01:24:20;;;;;;;2.15;1.77;;;13.20;99.90;;;;;;5043278;28;20031;-78
2023/09/15 01:26:55;;;;;;;4.00;1.42;;;13.00;99.90;;;;;;5044471;28;20013;-78
2023/09/15 01:29:47;;;;;;;4.90;1.98;;;13.00;99.90;;;;;;5043068;28;20104;-79
2023/09/15 01:32:16;;;;;;;6.18;2.20;;;13.00;99.90;;;;;;5044108;28;20039;-78
2023/09/15 01:34:50;;;;;;;2.15;1.88;;;12.90;99.90;;;;;;5043434;28;20045;-78
2023/09/15 01:37:16;;;;;;;4.53;1.77;;;12.80;99.90;;;;;;5044631;28;20009;-79
2023/09/15 01:39:41;;;;;;;1.75;1.52;;;12.80;99.90;;;;;;5043547;28;20027;-78
2023/09/15 01:42:07;;;;;;;2.60;1.67;;;12.80;99.90;;;;;;5042623;28;20043;-78
2023/09/15 01:44:33;;;;;;;2.20;1.70;;;12.80;99.90;;;;;;5043640;28;20072;-78
2023/09/15 01:46:59;;;;;;;2.85;1.75;;;12.80;99.90;;;;;;5042627;28;20406;-78
2023/09/15 01:49:25;;;;;;;2.58;1.50;;;12.70;99.90;;;;;;5042320;28;20025;-78
2023/09/15 01:51:51;;;;;;;3.53;1.73;;;12.60;99.90;;;;;;5044014;28;20014;-79
2023/09/15 01:54:17;;;;;;;4.80;2.22;;;12.60;99.90;;;;;;5044110;28;20272;-78
2023/09/15 01:56:49;;;;;;;7.03;2.28;;;12.60;99.90;;;;;;5042545;28;20024;-78
2023/09/15 01:59:15;;;;;;;4.82;1.83;;;12.60;99.90;;;;;;5042283;28;20021;-77
2023/09/15 02:01:41;;;;;;;3.63;2.22;;;12.60;99.90;;;;;;5042591;28;20256;-78
2023/09/15 02:04:07;;;;;;;2.13;1.90;;;12.60;99.90;;;;;;5043951;28;20033;-78
2023/09/15 02:06:33;;;;;;;4.22;1.70;;;12.60;99.90;;;;;;5043156;28;20063;-78
2023/09/15 02:08:58;;;;;;;2.90;1.80;;;12.60;99.90;;;;;;5042002;28;20013;-78
2023/09/15 02:11:24;;;;;;;2.10;1.77;;;12.60;99.90;;;;;;5042470;28;20309;-78
2023/09/15 02:13:50;;;;;;;5.10;2.03;;;12.60;99.90;;;;;;5042124;28;20017;-78
2023/09/15 02:16:15;;;;;;;3.90;1.63;;;12.60;99.90;;;;;;5043096;28;20026;-78
2023/09/15 02:18:41;;;;;;;7.55;1.77;;;12.50;99.90;;;;;;5041860;28;20252;-78
2023/09/15 02:21:06;;;;;;;2.17;1.20;;;12.50;99.90;;;;;;5043127;28;20029;-78
2023/09/15 02:23:32;;;;;;;2.03;1.58;;;12.50;99.90;;;;;;5042231;28;20033;-79
2023/09/15 02:26:05;;;;;;;1.20;1.10;;;12.50;99.90;;;;;;5042106;28;20018;-78
2023/09/15 02:28:33;;;;;;;5.28;1.60;;;12.50;99.90;;;;;;5042230;28;20021;-79
2023/09/15 02:31:01;;;;;;;4.47;1.80;;;12.40;99.90;;;;;;5041927;28;20024;-78
2023/09/15 02:33:27;;;;;;;4.63;1.58;;;12.40;99.90;;;;;;5041682;28;20063;-78
2023/09/15 02:35:52;;;;;;;2.40;1.45;;;12.40;99.90;;;;;;5042413;28;20223;-79
2023/09/15 02:38:18;;;;;;;3.03;1.98;;;12.30;99.90;;;;;;5042111;28;20229;-78
2023/09/15 02:40:44;;;;;;;3.28;1.58;;;12.30;99.90;;;;;;5043206;28;20032;-78
2023/09/15 02:43:09;;;;;;;2.65;1.45;;;12.30;99.90;;;;;;5041766;28;20326;-78
2023/09/15 02:45:36;;;;;;;1.92;1.30;;;12.20;99.90;;;;;;5042142;28;20037;-78
2023/09/15 02:48:03;;;;;;;3.72;1.52;;;12.20;99.90;;;;;;5042216;28;20029;-78
2023/09/15 02:50:29;;;;;;;4.45;1.55;;;12.20;99.90;;;;;;5042225;28;20328;-79
2023/09/15 02:52:55;;;;;;;4.07;1.50;;;12.10;99.90;;;;;;5042236;28;20029;-78
2023/09/15 02:55:22;;;;;;;3.00;1.90;;;12.10;99.90;;;;;;5041317;28;20206;-79
2023/09/15 02:57:51;;;;;;;1.38;1.10;;;12.10;99.90;;;;;;5042500;28;20013;-78
2023/09/15 03:00:17;;;;;;;;;;;12.00;99.90;;;;;;5043007;28;20021;-78
2023/09/15 03:02:44;;;;;;;3.35;1.35;;;12.00;99.90;;;;;;5042101;28;19988;-78
2023/09/15 03:05:09;;;;;;;1.48;1.33;;;12.00;99.90;;;;;;5040444;28;20116;-79
2023/09/15 03:07:39;;;;;;;1.65;1.20;;;12.00;99.90;;;;;;5040544;28;20101;-78
2023/09/15 03:10:09;;;;;;;1.40;1.30;;;12.00;99.90;;;;;;5042212;28;20018;-78
2023/09/15 03:12:35;;;;;;;2.45;2.08;;;12.00;99.90;;;;;;5042396;28;20033;-78
2023/09/15 03:15:06;;;;;;;6.90;2.53;;;12.10;99.90;;;;;;5041105;28;20024;-78
2023/09/15 03:17:32;;;;;;;5.47;2.20;;;12.20;99.90;;;;;;5042627;28;20025;-79
2023/09/15 03:19:58;;;;;;;4.13;1.73;;;12.20;99.90;;;;;;5041421;28;20017;-79
2023/09/15 03:22:24;;;;;;;2.92;1.90;;;12.30;99.90;;;;;;5041105;28;20040;-78
2023/09/15 03:24:49;;;;;;;1.88;1.75;;;12.40;99.90;;;;;;5041086;28;20021;-79
2023/09/15 03:27:15;;;;;;;2.08;1.83;;;12.40;99.90;;;;;;5040744;28;20053;-79
2023/09/15 03:29:41;;;;;;;3.22;2.05;;;12.40;99.90;;;;;;5040860;28;20039;-79
2023/09/15 03:32:06;;;;;;;1.75;1.63;;;12.50;99.90;;;;;;5040752;28;20127;-78
2023/09/15 03:34:32;;;;;;;6.68;2.13;;;12.60;99.90;;;;;;5041006;28;20040;-78
2023/09/15 03:37:01;;;;;;;1.90;1.58;;;12.70;99.90;;;;;;5030693;28;20025;-78
2023/09/15 03:39:27;;;;;;;4.53;1.58;;;12.70;99.90;;;;;;5032112;28;20021;-79
2023/09/15 03:41:52;;;;;;;2.95;2.05;;;12.80;99.90;;;;;;5028702;28;20425;-77
2023/09/15 03:44:19;;;;;;;3.60;1.63;;;12.90;99.90;;;;;;5028661;28;20049;-78
2023/09/15 03:46:45;;;;;;;2.28;1.48;;;13.00;99.90;;;;;;5028399;28;20022;-78
2023/09/15 03:49:12;;;;;;;2.00;1.63;;;13.10;99.90;;;;;;5027516;28;20025;-78
2023/09/15 03:51:37;;;;;;;3.90;2.65;;;13.20;99.90;;;;;;5027249;28;20048;-78
2023/09/15 03:54:03;;;;;;;1.63;1.52;;;13.40;99.90;;;;;;5027915;28;20029;-79
2023/09/15 03:56:29;;;;;;;4.97;1.90;;;13.40;99.90;;;;;;5028458;28;20029;-79
2023/09/15 03:58:55;;;;;;;3.60;1.70;;;13.40;99.90;;;;;;5030786;28;20028;-78
2023/09/15 04:01:23;;;;;;;2.05;1.95;;;13.50;99.90;;;;;;5029438;28;20022;-78
2023/09/15 04:03:49;;;;;;;6.32;2.35;;;13.50;99.90;;;;;;5029492;28;20063;-78
2023/09/15 04:06:16;;;;;;;6.70;2.60;;;13.60;99.90;;;;;;5030963;28;20546;-78
2023/09/15 04:08:41;;;;;;;3.40;1.75;;;13.60;99.90;;;;;;5035898;28;20018;-78
2023/09/15 04:11:07;;;;;;;2.92;1.55;;;13.80;99.90;;;;;;5030434;28;20147;-78
2023/09/15 04:13:33;;;;;;;5.45;3.40;;;13.80;99.90;;;;;;5031011;28;20021;-77
2023/09/15 04:16:00;;;;;;;3.10;1.65;;;13.90;99.90;;;;;;5031750;28;20398;-79
2023/09/15 04:18:29;;;;;;;2.53;2.00;;;13.90;99.90;;;;;;5031216;28;20024;-79
2023/09/15 04:20:54;;;;;;;4.28;1.88;;;13.80;99.90;;;;;;5031178;28;20447;-78
2023/09/15 04:23:21;;;;;;;5.07;1.92;;;13.90;99.90;;;;;;5031067;28;20037;-79
2023/09/15 04:25:47;;;;;;;3.10;2.38;;;13.90;99.90;;;;;;5029815;28;20056;-79
2023/09/15 04:28:13;;;;;;;4.40;1.70;;;13.90;99.90;;;;;;5032526;28;20040;-78
2023/09/15 04:30:39;;;;;;;2.58;1.73;;;13.90;99.90;;;;;;5030654;28;20026;-79
2023/09/15 04:33:04;;;;;;;2.60;1.90;;;14.00;99.90;;;;;;5032795;28;20033;-79
2023/09/15 04:35:30;;;;;;;4.40;2.47;;;14.00;99.90;;;;;;5029185;28;20421;-79
2023/09/15 04:37:55;;;;;;;4.60;1.65;;;13.90;99.90;;;;;;5031181;28;20485;-79
2023/09/15 04:40:22;;;;;;;4.93;2.05;;;13.90;99.90;;;;;;5030784;28;20026;-80
2023/09/15 04:42:47;;;;;;;3.17;2.08;;;14.00;99.90;;;;;;5031016;28;20525;-79
2023/09/15 04:45:13;;;;;;;2.58;1.60;;;14.00;99.90;;;;;;5029761;28;20042;-78
2023/09/15 04:47:40;;;;;;;3.20;1.52;;;14.10;99.90;;;;;;5031096;28;20116;-78
2023/09/15 04:50:08;;;;;;;3.42;1.75;;;14.10;99.90;;;;;;5029200;28;20496;-78
2023/09/15 04:52:34;;;;;;;6.28;2.13;;;14.10;99.90;;;;;;5029876;28;20433;-79
2023/09/15 04:55:00;;;;;;;4.03;2.10;;;14.20;99.90;;;;;;5030400;28;20022;-79
2023/09/15 04:57:25;;;;;;;3.38;1.60;;;14.20;99.90;;;;;;5030450;28;20033;-78
2023/09/15 04:59:54;;;;;;;3.20;1.73;;;14.20;99.90;;;;;;5033039;28;20485;-79
2023/09/15 05:02:23;;;;;;;3.28;1.42;;;14.20;99.90;;;;;;5033167;28;20033;-78
2023/09/15 05:04:52;;;;;;;4.95;1.73;;;14.20;99.90;;;;;;5033088;28;20032;-78
2023/09/15 05:07:18;;;;;;;1.95;1.45;;;14.20;99.90;;;;;;5034095;28;20037;-78
2023/09/15 05:09:45;;;;;;;5.05;1.92;;;14.20;99.90;;;;;;5033203;28;20060;-78
2023/09/15 05:12:11;;;;;;;6.97;2.75;;;14.20;99.90;;;;;;5034246;28;20486;-78
2023/09/15 05:14:37;;;;;;;7.85;1.77;;;14.20;99.90;;;;;;5032452;28;20033;-78
2023/09/15 05:17:03;;;;;;;4.28;1.98;;;14.30;99.90;;;;;;5034027;28;20040;-78
2023/09/15 05:19:29;;;;;;;1.92;1.50;;;14.30;99.90;;;;;;5033641;28;20394;-77
2023/09/15 05:21:55;;;;;;;6.57;1.45;;;14.30;99.90;;;;;;5032226;28;20036;-79
2023/09/15 05:25:17;;;;;;;5.78;1.55;;;14.30;99.90;;;;;;5057175;28;20009;-82
2023/09/15 05:31:42;;;;;;;2.60;1.63;;;14.40;99.90;;;;;;5044227;28;20047;-82
2023/09/15 05:34:37;;;;;;;3.33;1.67;;;13.60;99.90;;;;;;4998961;28;20038;-81
2023/09/15 05:37:37;;;;;;;5.50;1.88;;;14.40;99.90;;;;;;5022198;28;20024;-82
2023/09/15 05:41:05;;;;;;;5.13;2.72;;;14.40;99.90;;;;;;5020025;28;20034;-82
2023/09/15 05:44:22;;;;;;;6.47;2.08;;;14.40;99.90;;;;;;5012001;28;20027;-82
2023/09/15 05:47:43;;;;;;;3.35;1.92;;;14.50;99.90;;;;;;5018519;28;20038;-82
2023/09/15 05:51:08;;;;;;;8.60;2.70;;;14.50;99.90;;;;;;4959946;28;20046;-80
2023/09/15 05:54:20;;;;;;;3.33;3.03;;;14.40;99.90;;;;;;4965155;28;20040;-81
2023/09/15 05:56:45;;;;;;;6.63;2.85;;;14.30;99.90;;;;;;4999624;28;20011;-79
2023/09/15 05:59:11;;;;;;;6.30;3.35;;;14.40;99.90;;;;;;4969738;28;20097;-82
2023/09/15 06:01:39;;;;;;;8.80;3.33;;;14.30;99.90;;;;;;4936552;29;20043;-82
2023/09/15 06:04:07;;;;;;;7.32;3.38;;;14.30;99.90;;;;;;4944726;28;20050;-81
2023/09/15 06:06:37;;;;;;;4.90;3.10;;;14.40;99.90;;;;;;4993246;28;20034;-81
2023/09/15 06:09:09;;;;;;;;;;;14.60;99.90;;;;;;5014816;28;20015;-80
2023/09/15 06:11:34;;;;;;;6.90;3.13;;;14.70;99.90;;;;;;4999879;28;19901;-82
2023/09/15 06:14:00;;;;;;;5.13;2.78;;;14.80;99.90;;;;;;5010970;28;20391;-83
2023/09/15 06:16:45;;;;;;;3.08;2.35;;;14.90;99.90;;;;;;5148172;23;20057;-86
2023/09/15 06:19:11;;;;;;;3.70;2.45;;;14.90;99.90;;;;;;5040375;28;20142;-81
2023/09/15 06:21:37;;;;;;;7.68;3.03;;;15.00;99.90;;;;;;5045579;28;20041;-85
2023/09/15 06:24:04;;;;;;;3.33;3.00;;;15.10;99.90;;;;;;5038469;28;20075;-87
2023/09/15 06:26:30;;;;;;;5.55;3.20;;;15.20;99.90;;;;;;5051961;28;20028;-80
2023/09/15 06:28:56;;;;;;;6.82;3.80;;;15.30;99.90;;;;;;5048397;28;20033;-78
2023/09/15 06:31:22;;;;;;;5.40;2.60;;;15.30;99.90;;;;;;5053441;28;20113;-79
2023/09/15 06:33:47;;;;;;;5.60;2.90;;;15.30;99.90;;;;;;5051741;28;20037;-80
2023/09/15 06:36:18;;;;;;;6.55;2.97;;;15.40;99.90;;;;;;5057098;28;20013;-79
2023/09/15 06:38:44;;;;;;;3.65;2.67;;;15.20;99.90;;;;;;5037318;28;20021;-79
2023/09/15 06:41:10;;;;;;;4.65;2.47;;;15.20;99.90;;;;;;5041058;28;20379;-81
2023/09/15 06:43:36;;;;;;;7.47;4.32;;;15.20;99.90;;;;;;5044428;28;20025;-80
2023/09/15 06:46:02;;;;;;;10.15;4.28;;;15.10;99.90;;;;;;5053408;28;20036;-80
2023/09/15 06:48:28;;;;;;;3.42;2.53;;;15.00;99.90;;;;;;5053724;28;20014;-81
2023/09/15 06:50:53;;;;;;;5.45;3.63;;;15.20;99.90;;;;;;5056637;28;20029;-81
2023/09/15 06:53:19;;;;;;;9.07;4.25;;;15.30;99.90;;;;;;5054129;28;20037;-81
2023/09/15 06:55:45;;;;;;;4.78;2.65;;;15.50;99.90;;;;;;5045686;28;20112;-83
2023/09/15 06:58:10;;;;;;;10.63;3.72;;;15.60;99.90;;;;;;5039651;28;20029;-81
2023/09/15 07:00:36;;;;;;;5.72;3.28;;;15.70;99.90;;;;;;5053380;28;20021;-80
2023/09/15 07:03:02;;;;;;;4.65;3.03;;;15.80;99.90;;;;;;5056608;28;20048;-80
2023/09/15 07:05:27;;;;;;;7.05;2.60;;;15.80;99.90;;;;;;5056945;28;20052;-80
2023/09/15 07:07:56;;;;;;;6.20;3.28;;;15.80;99.90;;;;;;5053739;28;20029;-80
2023/09/15 07:10:22;;;;;;;;;;;15.80;99.90;;;;;;5044303;28;20569;-80
2023/09/15 07:12:48;;;;;;;9.43;3.15;;;16.00;99.90;;;;;;5049899;28;19935;-81
2023/09/15 07:15:14;;;;;;;12.13;3.65;;;16.30;99.90;;;;;;5040307;28;20029;-81
2023/09/15 07:18:08;;;;;;;9.00;3.60;;;16.50;99.90;;;;;;5050969;28;20037;-81
2023/09/15 07:20:42;;;;;;;5.63;2.28;;;16.80;99.90;;;;;;5037384;28;20109;-87
2023/09/15 07:23:07;;;;;;;6.43;3.03;;;17.00;99.90;;;;;;5042255;28;20059;-81
2023/09/15 07:25:37;;;;;;;7.75;3.47;;;17.10;99.90;;;;;;5032922;28;20120;-81
2023/09/15 07:28:03;;;;;;;4.47;3.15;;;17.40;99.90;;;;;;5036320;28;20126;-84
2023/09/15 07:30:30;;;;;;;10.23;3.60;;;17.40;99.90;;;;;;5020847;28;20030;-81
2023/09/15 07:32:56;;;;;;;11.15;3.67;;;17.30;99.90;;;;;;5029017;28;20048;-83
2023/09/15 07:35:22;;;;;;;5.80;3.28;;;17.40;99.90;;;;;;5029461;28;20459;-83
2023/09/15 07:37:48;;;;;;;4.38;2.85;;;17.60;99.90;;;;;;5028231;28;20160;-82
2023/09/15 07:40:14;;;;;;;11.60;2.80;;;17.90;99.90;;;;;;5028913;28;20507;-84
2023/09/15 07:42:49;;;;;;;7.40;3.17;;;18.00;99.90;;;;;;5053254;28;20034;-83
2023/09/15 07:45:15;;;;;;;6.47;3.58;;;18.00;99.90;;;;;;5034303;28;20053;-79
2023/09/15 07:47:41;;;;;;;5.22;3.55;;;17.80;99.90;;;;;;5055883;28;20033;-79
2023/09/15 07:50:07;;;;;;;3.88;2.58;;;17.70;99.90;;;;;;5032151;28;20084;-80
2023/09/15 07:52:33;;;;;;;3.03;2.50;;;17.70;99.90;;;;;;5028531;28;20037;-82
2023/09/15 07:54:59;;;;;;;5.53;2.65;;;17.80;99.90;;;;;;5028325;28;20017;-83
2023/09/15 07:57:24;;;;;;;9.27;2.97;;;18.10;99.90;;;;;;5028211;28;20040;-81
2023/09/15 07:59:50;;;;;;;6.03;3.45;;;18.40;99.90;;;;;;5029449;28;20018;-84
2023/09/15 08:02:16;;;;;;;6.45;3.25;;;18.00;99.90;;;;;;5027814;28;20107;-81
2023/09/15 08:04:42;;;;;;;4.65;2.47;;;18.40;99.90;;;;;;5028411;28;20397;-85
2023/09/15 08:07:08;;;;;;;4.88;3.05;;;18.80;99.90;;;;;;5029759;28;20022;-83
2023/09/15 08:09:33;;;;;;;4.50;2.50;;;18.80;99.90;;;;;;5028547;28;20033;-85
2023/09/15 08:12:00;;;;;;;9.27;3.00;;;19.00;99.90;;;;;;5028506;28;20029;-85
2023/09/15 08:14:26;;;;;;;7.13;3.50;;;19.10;99.90;;;;;;5028042;28;20033;-86
2023/09/15 08:16:52;;;;;;;6.22;3.67;;;18.80;99.90;;;;;;5027816;28;20096;-84
2023/09/15 08:19:27;;;;;;;10.77;3.90;;;18.80;99.90;;;;;;5037092;28;20029;-79
2023/09/15 08:22:13;;;;;;;4.95;3.35;;;19.20;99.90;;;;;;5049354;28;20601;-84
2023/09/15 08:24:39;;;;;;;11.60;4.20;;;19.20;99.90;;;;;;5028250;28;20113;-87
2023/09/15 08:27:05;;;;;;;4.47;3.00;;;19.60;99.90;;;;;;5030622;28;20116;-85
2023/09/15 08:29:36;;;;;;;11.52;4.38;;;19.70;99.90;;;;;;5048559;28;20029;-84
2023/09/15 08:32:03;;;;;;;5.30;3.70;;;19.30;99.90;;;;;;5031809;28;20029;-87
2023/09/15 08:34:29;;;;;;;6.40;3.78;;;19.60;99.90;;;;;;5033260;28;20017;-83
2023/09/15 08:36:55;;;;;;;6.80;3.20;;;20.00;99.90;;;;;;5033488;28;20328;-84
2023/09/15 08:39:20;;;;;;;5.93;3.42;;;20.20;99.90;;;;;;5033846;28;20021;-83
2023/09/15 08:41:52;;;;;;;7.38;3.28;;;20.40;99.90;;;;;;5032808;28;20481;-82
2023/09/15 08:44:20;;;;;;;8.10;3.58;;;20.50;99.90;;;;;;5033951;28;20422;-85
2023/09/15 08:46:48;;;;;;;5.90;3.78;;;20.90;99.90;;;;;;5033010;28;20091;-83
2023/09/15 08:49:15;;;;;;;7.10;3.47;;;21.10;99.90;;;;;;5031079;28;20036;-85
2023/09/15 08:51:43;;;;;;;5.03;3.47;;;20.80;99.90;;;;;;5032654;28;20087;-83
2023/09/15 08:54:09;;;;;;;7.30;4.27;;;20.80;99.90;;;;;;5032553;28;20021;-87
2023/09/15 08:56:36;;;;;;;6.93;4.25;;;20.30;99.90;;;;;;5031603;28;20291;-86
2023/09/15 08:59:03;;;;;;;7.20;3.63;;;20.30;99.90;;;;;;5032088;28;20029;-82
2023/09/15 09:01:30;;;;;;;6.82;3.65;;;20.30;99.90;;;;;;5031233;28;20211;-85
2023/09/15 09:03:56;;;;;;;4.88;3.00;;;20.50;99.90;;;;;;5031336;28;20034;-86
2023/09/15 09:06:23;;;;;;;13.32;5.57;;;20.60;99.90;;;;;;5036287;28;20024;-77
2023/09/15 09:08:49;;;;;;;11.82;4.80;;;20.40;99.90;;;;;;5059042;28;20021;-78
2023/09/15 09:11:35;;;;;;;6.03;3.88;;;20.40;99.90;;;;;;5036102;28;20478;-83
2023/09/15 09:14:01;;;;;;;6.85;4.47;;;20.50;99.90;;;;;;5031465;28;20182;-83
2023/09/15 09:16:28;;;;;;;7.65;4.90;;;20.70;99.90;;;;;;5031075;28;20526;-82
2023/09/15 09:18:59;;;;;;;7.93;4.53;;;21.00;99.90;;;;;;5030838;28;20033;-83
2023/09/15 09:21:29;;;;;;;12.85;4.63;;;21.20;99.90;;;;;;5032137;28;20024;-82
2023/09/15 09:23:55;;;;;;;7.50;5.93;;;21.20;99.90;;;;;;5031706;28;20117;-84
2023/09/15 09:26:21;;;;;;;7.88;4.68;;;21.40;99.90;;;;;;5049962;28;20025;-80
2023/09/15 09:28:47;;;;;;;7.53;5.32;;;21.20;99.90;;;;;;5040595;28;20025;-84
2023/09/15 09:31:14;;;;;;;9.10;4.90;;;21.20;99.90;;;;;;5030717;28;20033;-81
2023/09/15 09:33:42;;;;;;;9.57;5.75;;;21.40;99.90;;;;;;5032229;28;20109;-85
2023/09/15 09:36:15;;;;;;;8.00;5.18;;;21.30;99.90;;;;;;5041338;28;20028;-83
2023/09/15 09:38:42;;;;;;;8.43;4.90;;;21.10;99.90;;;;;;5030781;28;20025;-82
2023/09/15 09:41:10;;;;;;;10.23;4.80;;;21.10;99.90;;;;;;5032045;28;20029;-84
2023/09/15 09:43:38;;;;;;;6.77;4.23;;;21.40;99.90;;;;;;5031286;28;20098;-85
2023/09/15 09:46:08;;;;;;;7.15;4.53;;;20.70;99.90;;;;;;5031875;28;20543;-87
2023/09/15 09:48:38;;;;;;;8.02;5.07;;;21.30;99.90;;;;;;5031963;28;20029;-83
2023/09/15 09:51:05;;;;;;;10.05;4.78;;;21.30;99.90;;;;;;5031708;28;20051;-83
2023/09/15 09:53:35;;;;;;;9.40;4.93;;;21.50;99.90;;;;;;5030393;28;20036;-85
2023/09/15 09:56:04;;;;;;;11.55;5.95;;;21.70;99.90;;;;;;5032095;28;20071;-82
2023/09/15 09:58:38;;;;;;;8.55;5.18;;;21.90;99.90;;;;;;5030472;28;20025;-81
2023/09/15 10:01:06;;;;;;;6.22;3.92;;;22.10;99.90;;;;;;5031657;28;20480;-83
2023/09/15 10:03:32;;;;;;;12.10;5.38;;;22.30;99.90;;;;;;5030209;28;20117;-82
2023/09/15 10:05:59;;;;;;;10.63;5.72;;;22.30;99.90;;;;;;5030318;28;20071;-84
2023/09/15 10:08:26;;;;;;;10.10;6.10;;;22.40;99.90;;;;;;5030173;28;20037;-83
2023/09/15 10:10:52;;;;;;;13.45;5.82;;;22.30;99.90;;;;;;5031389;28;20021;-82
2023/09/15 10:13:18;;;;;;;11.15;6.60;;;22.20;99.90;;;;;;5030024;28;20036;-85
2023/09/15 10:15:45;;;;;;;8.25;6.30;;;22.30;99.90;;;;;;5030089;28;20029;-82
2023/09/15 10:18:14;;;;;;;9.60;6.03;;;22.30;99.90;;;;;;5029849;28;20022;-81
2023/09/15 10:20:46;;;;;;;10.07;5.83;;;22.30;99.90;;;;;;5029775;28;20537;-81
2023/09/15 10:23:15;;;;;;;10.43;6.25;;;22.30;99.90;;;;;;5030899;28;20373;-83
2023/09/15 10:25:42;;;;;;;8.80;5.93;;;22.30;99.90;;;;;;5031547;28;20026;-84
2023/09/15 10:28:11;;;;;;;8.75;5.47;;;22.20;99.90;;;;;;5035386;28;20084;-84
2023/09/15 10:30:39;;;;;;;7.53;5.15;;;22.00;99.90;;;;;;5031381;28;20025;-84
2023/09/15 10:33:09;;;;;;;9.50;6.83;;;22.10;99.90;;;;;;5030048;28;20034;-83
2023/09/15 10:35:44;;;;;;;13.48;6.45;;;22.40;99.90;;;;;;5029755;28;20045;-83
2023/09/15 10:38:09;;;;;;;12.57;5.85;;;22.50;99.90;;;;;;5029354;28;20116;-82
2023/09/15 10:40:49;;;;;;;7.18;5.30;;;22.80;99.90;;;;;;5029576;28;20120;-85
2023/09/15 10:43:19;;;;;;;10.73;5.53;;;22.90;99.90;;;;;;5029362;28;20037;-84
2023/09/15 10:46:01;;;;;;;7.00;5.20;;;23.00;99.90;;;;;;5029497;28;20026;-83
2023/09/15 10:48:48;;;;;;;10.80;4.97;;;23.10;99.90;;;;;;5029515;28;20032;-83
2023/09/15 10:51:18;;;;;;;7.32;4.75;;;23.20;99.90;;;;;;5030283;28;20481;-83
2023/09/15 10:54:04;;;;;;;7.40;4.63;;;23.10;99.90;;;;;;5030485;28;20022;-83
2023/09/15 10:56:32;;;;;;;7.93;4.95;;;23.30;99.90;;;;;;5029317;28;20051;-83
2023/09/15 10:58:58;;;;;;;7.50;5.40;;;23.50;99.90;;;;;;5030427;28;20021;-82
2023/09/15 11:01:23;;;;;;;6.32;4.20;;;23.80;99.90;;;;;;5030054;28;20568;-81
2023/09/15 11:03:50;;;;;;;6.50;4.85;;;24.10;99.90;;;;;;5030100;28;20394;-82
2023/09/15 11:06:18;;;;;;;6.40;4.63;;;24.40;99.90;;;;;;5029777;28;20033;-81
2023/09/15 11:08:44;;;;;;;5.72;4.25;;;24.70;99.90;;;;;;5029941;28;20482;-82
2023/09/15 11:11:10;;;;;;;7.13;4.38;;;25.10;99.90;;;;;;5028811;28;20036;-80
2023/09/15 11:13:42;;;;;;;6.50;5.00;;;25.20;99.90;;;;;;5028567;28;20049;-81
2023/09/15 11:16:11;;;;;;;7.57;4.60;;;24.90;99.90;;;;;;5029836;28;20053;-81
2023/09/15 11:18:38;;;;;;;12.90;5.57;;;24.80;99.90;;;;;;5030465;28;20025;-82
2023/09/15 11:21:05;;;;;;;8.20;5.03;;;24.80;99.90;;;;;;5029958;28;20076;-80
2023/09/15 11:23:30;;;;;;;7.65;5.07;;;24.90;99.90;;;;;;5030198;28;20033;-82
2023/09/15 11:26:06;;;;;;;8.65;4.93;;;24.70;99.90;;;;;;5029324;28;20054;-81
2023/09/15 11:28:32;;;;;;;7.18;4.55;;;24.50;99.90;;;;;;5029888;28;20029;-80
2023/09/15 11:30:59;;;;;;;5.30;4.43;;;24.90;99.90;;;;;;5029754;28;20029;-81
2023/09/15 11:33:25;;;;;;;8.20;5.20;;;24.70;99.90;;;;;;5029962;28;20101;-84
2023/09/15 11:35:51;;;;;;;5.57;4.25;;;24.50;99.90;;;;;;5028126;28;20072;-81
2023/09/15 11:38:18;;;;;;;7.05;4.05;;;24.60;99.90;;;;;;5029575;28;20083;-83
2023/09/15 11:40:48;;;;;;;5.95;4.25;;;24.80;99.90;;;;;;5028419;28;20031;-82
2023/09/15 11:43:14;;;;;;;5.20;4.05;;;25.40;99.70;;;;;;5030116;28;20037;-78
2023/09/15 11:45:41;;;;;;;8.88;3.42;;;25.70;99.20;;;;;;5029807;28;20455;-81
2023/09/15 11:48:07;;;;;;;3.97;3.35;;;26.10;98.70;;;;;;5029908;28;20061;-81
2023/09/15 11:50:34;;;;;;;5.88;4.00;;;26.60;98.30;;;;;;5029372;28;20501;-80
2023/09/15 11:52:59;;;;;;;5.50;3.88;;;26.60;98.30;;;;;;5028181;28;20030;-81
2023/09/15 11:55:25;;;;;;;7.63;3.95;;;26.30;98.50;;;;;;5027946;28;20017;-83
2023/09/15 11:57:52;;;;;;;4.47;3.35;;;25.90;98.30;;;;;;5030191;28;20104;-83
2023/09/15 12:00:20;;;;;;;7.15;4.22;;;25.80;97.40;;;;;;5029342;28;20025;-82
2023/09/15 12:02:49;;;;;;;7.72;4.07;;;25.80;99.80;;;;;;5029079;28;20406;-83
2023/09/15 12:05:15;;;;;;;;;;;25.90;97.20;;;;;;5029745;28;20389;-82
2023/09/15 12:07:43;;;;;;;3.47;3.17;;;25.80;97.90;;;;;;5031026;28;19905;-81
2023/09/15 12:10:13;;;;;;;3.45;3.13;;;25.70;97.80;;;;;;5033112;28;20029;-81
2023/09/15 12:12:39;;;;;;;5.32;3.28;;;25.60;97.70;;;;;;5033441;28;20036;-81
2023/09/15 12:15:06;;;;;;;5.57;3.05;;;25.50;99.20;;;;;;5033168;28;20033;-82
2023/09/15 12:17:33;;;;;;;4.05;3.65;;;25.70;97.70;;;;;;5032363;28;20049;-82
2023/09/15 12:20:04;;;;;;;3.75;3.40;;;25.70;97.00;;;;;;5032293;28;20112;-84
2023/09/15 12:22:34;;;;;;;4.88;3.38;;;25.70;97.20;;;;;;5033611;28;20667;-81
2023/09/15 12:25:00;;;;;;;5.82;3.55;;;25.70;97.10;;;;;;5033563;28;20104;-85
2023/09/15 12:27:27;;;;;;;6.28;3.50;;;25.70;96.90;;;;;;5034735;28;20115;-85
2023/09/15 12:29:53;;;;;;;4.65;3.25;;;25.80;96.50;;;;;;5033715;28;20021;-81
2023/09/15 12:32:30;;;;;;;3.78;3.20;;;25.80;96.30;;;;;;5032616;28;20032;-80
2023/09/15 12:34:56;;;;;;;6.50;3.25;;;26.10;96.00;;;;;;5031502;28;20037;-82
2023/09/15 12:37:27;;;;;;;4.57;2.75;;;26.10;96.10;;;;;;5031272;28;20181;-82
2023/09/15 12:39:52;;;;;;;4.57;3.60;;;26.60;96.50;;;;;;5032146;28;20397;-82
2023/09/15 12:42:18;;;;;;;6.32;3.88;;;26.60;96.10;;;;;;5032826;28;20037;-82
2023/09/15 12:44:44;;;;;;;5.22;3.58;;;26.70;94.80;;;;;;5032970;28;20021;-82
2023/09/15 12:47:11;;;;;;;8.27;4.85;;;26.50;94.40;;;;;;5032768;28;20032;-81
2023/09/15 12:49:37;;;;;;;5.68;3.67;;;26.90;94.20;;;;;;5032479;28;20112;-82
2023/09/15 12:52:03;;;;;;;8.13;3.83;;;27.30;94.40;;;;;;5032366;28;20033;-82
2023/09/15 12:54:29;;;;;;;5.40;3.50;;;27.60;93.80;;;;;;5031648;28;20076;-81
2023/09/15 12:56:56;;;;;;;3.92;3.20;;;28.10;91.60;;;;;;5032743;28;20100;-81
2023/09/15 12:59:25;;;;;;;4.68;3.88;;;28.90;91.90;;;;;;5031727;28;20497;-82